Time;durP1;ratioP1;P1;durP2;ratioP2;P2;SDS_P1;SDS_P2;PMS_P1;PMS_P2;Temp;Humidity;BMP_temperature;BMP_pressure;BME280_temperature;BME280_humidity;BME280_pressure;Samples;Min_cycle;Max_cycle;Signal;HPM_P1;HPM_P2
2022/10/29 00:00:24;;;;;;;0.00;0.00;;;13.40;99.90;;;;;;5092737;28;20512;-82
2022/10/29 00:02:49;;;;;;;0.10;0.10;;;13.40;99.90;;;;;;5092382;28;20498;-81
2022/10/29 00:05:15;;;;;;;0.00;0.00;;;13.40;99.90;;;;;;5092267;28;20076;-81
2022/10/29 00:07:41;;;;;;;0.00;0.00;;;13.40;99.90;;;;;;5075514;28;20052;-82
2022/10/29 00:10:07;;;;;;;0.00;0.00;;;13.40;99.90;;;;;;5078089;28;20059;-82
2022/10/29 00:12:33;;;;;;;0.00;0.00;;;13.40;99.90;;;;;;5079164;28;20051;-82
2022/10/29 00:14:58;;;;;;;0.00;0.00;;;13.40;99.90;;;;;;5079261;28;20052;-81
2022/10/29 00:17:24;;;;;;;0.08;0.08;;;13.40;99.90;;;;;;5079156;28;20070;-81
2022/10/29 00:19:49;;;;;;;0.00;0.00;;;13.40;99.90;;;;;;5095609;28;20417;-81
2022/10/29 00:22:15;;;;;;;0.00;0.00;;;13.40;99.90;;;;;;5078958;28;20056;-81
2022/10/29 00:24:41;;;;;;;0.03;0.00;;;13.40;99.90;;;;;;5095784;28;20499;-81
2022/10/29 00:27:06;;;;;;;0.00;0.00;;;13.50;99.90;;;;;;5095734;28;20039;-82
2022/10/29 00:29:32;;;;;;;0.05;0.05;;;13.50;99.90;;;;;;5095665;28;20427;-81
2022/10/29 00:31:58;;;;;;;0.00;0.00;;;13.50;99.90;;;;;;5078765;28;20040;-81
2022/10/29 00:34:23;;;;;;;3.60;0.30;;;13.50;99.90;;;;;;5095286;28;20047;-82
2022/10/29 00:36:49;;;;;;;0.00;0.00;;;13.40;99.90;;;;;;5078773;28;20040;-82
2022/10/29 00:39:15;;;;;;;0.00;0.00;;;13.50;99.90;;;;;;5078828;28;20061;-82
2022/10/29 00:41:41;;;;;;;0.00;0.00;;;13.50;99.90;;;;;;5095357;28;20056;-82
2022/10/29 00:44:19;;;;;;;0.00;0.00;;;13.50;99.90;;;;;;5095716;28;20054;-82
2022/10/29 00:47:09;;;;;;;0.00;0.00;;;13.60;99.90;;;;;;5095280;28;20044;-82
2022/10/29 00:49:35;;;;;;;0.00;0.00;;;13.50;99.90;;;;;;5095995;28;20430;-82
2022/10/29 00:52:03;;;;;;;0.45;0.00;;;13.50;99.90;;;;;;5095676;28;20043;-81
2022/10/29 00:54:33;;;;;;;0.00;0.00;;;13.50;99.90;;;;;;5095266;28;20059;-82
2022/10/29 00:57:04;;;;;;;0.00;0.00;;;13.40;99.90;;;;;;5078585;28;20055;-81
2022/10/29 00:59:31;;;;;;;0.80;0.10;;;13.40;99.90;;;;;;5095265;28;20047;-81
2022/10/29 01:01:57;;;;;;;0.00;0.00;;;13.40;99.90;;;;;;5095173;28;20135;-81
2022/10/29 01:04:23;;;;;;;0.00;0.00;;;13.40;99.90;;;;;;5078359;28;20088;-81
2022/10/29 01:06:50;;;;;;;0.00;0.00;;;13.30;99.90;;;;;;5078272;28;20109;-81
2022/10/29 01:09:16;;;;;;;0.00;0.00;;;13.20;99.90;;;;;;5095228;28;20047;-81
2022/10/29 01:12:20;;;;;;;0.00;0.00;;;13.20;99.90;;;;;;5095130;28;20051;-81
2022/10/29 01:15:07;;;;;;;0.00;0.00;;;13.20;99.90;;;;;;5095249;28;20500;-82
2022/10/29 01:18:15;;;;;;;0.00;0.00;;;13.20;99.90;;;;;;5094864;28;20410;-82
2022/10/29 01:21:15;;;;;;;0.00;0.00;;;13.20;99.90;;;;;;5077676;28;20059;-82
2022/10/29 01:24:19;;;;;;;0.00;0.00;;;13.20;99.90;;;;;;5094820;28;20127;-82
2022/10/29 01:26:50;;;;;;;0.65;0.00;;;13.10;99.90;;;;;;5078182;28;20054;-82
2022/10/29 01:29:37;;;;;;;0.00;0.00;;;13.10;99.90;;;;;;5078140;28;20048;-82
2022/10/29 01:32:12;;;;;;;0.00;0.00;;;13.10;99.90;;;;;;5078186;28;20146;-82
2022/10/29 01:34:46;;;;;;;0.00;0.00;;;13.10;99.90;;;;;;5094432;28;20545;-82
2022/10/29 01:37:34;;;;;;;0.00;0.00;;;13.10;99.90;;;;;;5095657;28;20063;-82
2022/10/29 01:40:10;;;;;;;0.05;0.03;;;13.10;99.90;;;;;;5077910;28;20079;-82
2022/10/29 01:42:55;;;;;;;0.00;0.00;;;13.20;99.90;;;;;;5094186;28;20501;-82
2022/10/29 01:45:30;;;;;;;0.00;0.00;;;13.10;99.90;;;;;;5077949;28;20044;-82
2022/10/29 01:48:06;;;;;;;0.32;0.20;;;13.10;99.90;;;;;;5094437;28;20373;-82
2022/10/29 01:50:34;;;;;;;0.00;0.00;;;13.10;99.90;;;;;;5077851;28;20079;-82
2022/10/29 01:53:03;;;;;;;0.00;0.00;;;13.00;99.90;;;;;;5077263;28;20507;-82
2022/10/29 01:55:34;;;;;;;0.00;0.00;;;13.10;99.90;;;;;;5094258;28;20044;-82
2022/10/29 01:58:01;;;;;;;0.00;0.00;;;13.00;99.90;;;;;;5077356;28;20040;-82
2022/10/29 02:00:36;;;;;;;0.00;0.00;;;13.00;99.90;;;;;;5077272;28;20105;-82
2022/10/29 02:03:25;;;;;;;0.00;0.00;;;12.90;99.90;;;;;;5094568;28;20448;-82
2022/10/29 02:06:25;;;;;;;0.05;0.00;;;12.90;99.90;;;;;;5039560;28;20077;-82
2022/10/29 02:09:04;;;;;;;0.08;0.08;;;12.80;99.90;;;;;;5055890;28;20048;-82
2022/10/29 02:11:33;;;;;;;0.00;0.00;;;12.90;99.90;;;;;;5039355;28;20434;-82
2022/10/29 02:14:04;;;;;;;0.00;0.00;;;12.80;99.90;;;;;;5055917;28;20514;-82
2022/10/29 02:16:31;;;;;;;0.00;0.00;;;12.80;99.90;;;;;;5039364;28;20060;-82
2022/10/29 02:18:58;;;;;;;0.00;0.00;;;12.70;99.90;;;;;;5055806;28;20051;-82
2022/10/29 02:21:24;;;;;;;0.90;0.10;;;12.70;99.90;;;;;;5039470;28;20454;-82
2022/10/29 02:23:50;;;;;;;0.38;0.05;;;12.60;99.90;;;;;;5039236;28;20056;-82
2022/10/29 02:26:16;;;;;;;0.00;0.00;;;12.50;99.90;;;;;;5055803;28;20045;-82
2022/10/29 02:28:42;;;;;;;0.00;0.00;;;12.50;99.90;;;;;;5055420;28;20051;-82
2022/10/29 02:31:08;;;;;;;0.00;0.00;;;12.50;99.90;;;;;;5039666;28;20048;-82
2022/10/29 02:33:33;;;;;;;1.10;0.30;;;12.40;99.90;;;;;;5055779;28;20538;-82
2022/10/29 02:35:59;;;;;;;0.00;0.00;;;12.40;99.90;;;;;;5055250;28;20540;-82
2022/10/29 02:38:25;;;;;;;0.00;0.00;;;12.50;99.90;;;;;;5055641;28;20143;-82
2022/10/29 02:40:50;;;;;;;0.15;0.15;;;12.40;99.90;;;;;;5055493;28;20132;-82
2022/10/29 02:43:16;;;;;;;0.00;0.00;;;12.40;99.90;;;;;;5079876;28;20043;-82
2022/10/29 02:45:42;;;;;;;0.10;0.10;;;12.30;99.90;;;;;;5076108;28;20048;-82
2022/10/29 02:48:07;;;;;;;0.00;0.00;;;12.40;99.90;;;;;;5093363;28;20036;-82
2022/10/29 02:50:33;;;;;;;0.00;0.00;;;12.30;99.90;;;;;;5076872;28;20404;-82
2022/10/29 02:52:58;;;;;;;0.20;0.20;;;12.20;99.90;;;;;;5076302;28;20047;-82
2022/10/29 02:55:24;;;;;;;0.13;0.00;;;12.20;99.90;;;;;;5093466;28;20079;-82
2022/10/29 02:57:50;;;;;;;0.00;0.00;;;12.10;99.90;;;;;;5093406;28;20040;-82
2022/10/29 03:00:15;;;;;;;0.00;0.00;;;12.10;99.90;;;;;;5076823;28;20051;-82
2022/10/29 03:02:41;;;;;;;0.00;0.00;;;12.20;99.90;;;;;;5076034;28;20055;-82
2022/10/29 03:05:07;;;;;;;0.00;0.00;;;12.20;99.90;;;;;;5093352;28;20047;-82
2022/10/29 03:07:37;;;;;;;0.00;0.00;;;12.20;99.90;;;;;;5093110;28;20047;-82
2022/10/29 03:10:04;;;;;;;0.00;0.00;;;12.20;99.90;;;;;;5092905;28;20044;-82
2022/10/29 03:12:30;;;;;;;0.05;0.00;;;12.20;99.90;;;;;;5076277;28;20120;-82
2022/10/29 03:14:56;;;;;;;0.00;0.00;;;12.20;99.90;;;;;;5093430;28;20059;-82
2022/10/29 03:17:21;;;;;;;0.00;0.00;;;12.10;99.90;;;;;;5076480;28;20399;-82
2022/10/29 03:19:47;;;;;;;0.00;0.00;;;12.10;99.90;;;;;;5093339;28;20047;-81
2022/10/29 03:22:13;;;;;;;0.43;0.43;;;12.10;99.90;;;;;;5092667;28;20394;-82
2022/10/29 03:24:38;;;;;;;0.25;0.10;;;12.00;99.90;;;;;;5076206;28;20056;-82
2022/10/29 03:27:04;;;;;;;0.00;0.00;;;12.00;99.90;;;;;;5075885;28;20127;-82
2022/10/29 03:29:30;;;;;;;0.15;0.10;;;12.00;99.90;;;;;;5093038;28;20089;-82
2022/10/29 03:31:55;;;;;;;0.00;0.00;;;12.00;99.90;;;;;;5092856;28;20047;-82
2022/10/29 03:34:21;;;;;;;0.00;0.00;;;11.90;99.90;;;;;;5076118;28;20083;-82
2022/10/29 03:36:47;;;;;;;0.00;0.00;;;11.90;99.90;;;;;;5092813;28;20455;-81
2022/10/29 03:39:12;;;;;;;0.00;0.00;;;11.90;99.90;;;;;;5093029;28;20051;-82
2022/10/29 03:41:38;;;;;;;0.17;0.13;;;11.90;99.90;;;;;;5092675;28;20056;-82
2022/10/29 03:44:04;;;;;;;0.00;0.00;;;11.90;99.90;;;;;;5076786;28;20052;-82
2022/10/29 03:46:29;;;;;;;0.00;0.00;;;11.90;99.90;;;;;;5096693;28;20040;-82
2022/10/29 03:48:55;;;;;;;0.00;0.00;;;12.00;99.90;;;;;;5096900;28;20048;-82
2022/10/29 03:51:21;;;;;;;0.00;0.00;;;12.00;99.90;;;;;;5079795;28;20044;-82
2022/10/29 03:53:46;;;;;;;1.35;0.38;;;12.00;99.90;;;;;;5079449;28;20048;-82
2022/10/29 03:56:12;;;;;;;0.00;0.00;;;12.10;99.90;;;;;;5096618;28;20051;-82
2022/10/29 03:58:37;;;;;;;0.22;0.08;;;12.10;99.90;;;;;;5079795;28;20048;-82
2022/10/29 04:01:08;;;;;;;0.00;0.00;;;12.20;99.90;;;;;;5079829;28;20048;-82
2022/10/29 04:03:35;;;;;;;0.00;0.00;;;12.30;99.90;;;;;;5079993;28;20048;-82
2022/10/29 04:06:13;;;;;;;0.00;0.00;;;12.30;99.90;;;;;;5096403;28;20555;-82
2022/10/29 04:08:39;;;;;;;0.00;0.00;;;12.30;99.90;;;;;;5079369;28;20050;-82
2022/10/29 04:11:04;;;;;;;0.00;0.00;;;12.20;99.90;;;;;;5095955;28;20065;-82
2022/10/29 04:13:30;;;;;;;0.00;0.00;;;12.20;99.90;;;;;;5079291;28;20055;-82
2022/10/29 04:15:56;;;;;;;0.00;0.00;;;12.10;99.90;;;;;;5096019;28;20044;-82
2022/10/29 04:18:22;;;;;;;1.25;0.30;;;12.20;99.90;;;;;;5096047;28;20047;-82
2022/10/29 04:20:48;;;;;;;0.00;0.00;;;12.10;99.90;;;;;;5079427;28;20043;-82
2022/10/29 04:23:14;;;;;;;0.00;0.00;;;12.10;99.90;;;;;;5078829;28;20373;-82
2022/10/29 04:25:39;;;;;;;0.00;0.00;;;12.10;99.90;;;;;;5079142;28;20047;-82
2022/10/29 04:28:05;;;;;;;0.00;0.00;;;12.00;99.90;;;;;;5078875;28;20452;-82
2022/10/29 04:30:31;;;;;;;0.00;0.00;;;12.00;99.90;;;;;;5096319;28;20087;-81
2022/10/29 04:32:58;;;;;;;1.17;0.00;;;12.00;99.90;;;;;;5095782;28;20040;-82
2022/10/29 04:35:25;;;;;;;0.10;0.10;;;12.00;99.90;;;;;;5079150;28;20109;-82
2022/10/29 04:37:50;;;;;;;1.38;0.40;;;12.10;99.90;;;;;;5095720;28;20092;-82
2022/10/29 04:40:16;;;;;;;0.20;0.20;;;12.10;99.90;;;;;;5095950;28;20052;-82
2022/10/29 04:42:42;;;;;;;0.00;0.00;;;12.10;99.90;;;;;;5078056;28;20048;-82
2022/10/29 04:45:08;;;;;;;0.00;0.00;;;12.10;99.90;;;;;;5078471;28;20128;-82
2022/10/29 04:47:34;;;;;;;0.00;0.00;;;12.10;99.90;;;;;;5078711;28;20400;-82
2022/10/29 04:49:59;;;;;;;0.00;0.00;;;12.10;99.90;;;;;;5095522;28;20056;-82
2022/10/29 04:52:25;;;;;;;0.52;0.35;;;12.20;99.90;;;;;;5078684;28;20503;-82
2022/10/29 04:54:51;;;;;;;0.00;0.00;;;12.10;99.90;;;;;;5094835;28;20095;-82
2022/10/29 04:57:16;;;;;;;0.85;0.20;;;12.10;99.90;;;;;;5077873;28;20495;-82
2022/10/29 04:59:42;;;;;;;0.08;0.08;;;12.10;99.90;;;;;;5095229;28;20040;-82
2022/10/29 05:02:09;;;;;;;0.00;0.00;;;12.10;99.90;;;;;;5095647;28;20063;-82
2022/10/29 05:04:35;;;;;;;0.00;0.00;;;12.00;99.90;;;;;;5095203;28;20059;-82
2022/10/29 05:07:00;;;;;;;0.00;0.00;;;12.00;99.90;;;;;;5077985;28;20135;-82
2022/10/29 05:09:26;;;;;;;0.08;0.08;;;12.00;99.90;;;;;;5094843;28;20105;-82
2022/10/29 05:11:52;;;;;;;0.00;0.00;;;11.90;99.90;;;;;;5078099;28;20056;-82
2022/10/29 05:14:17;;;;;;;0.00;0.00;;;11.90;99.90;;;;;;5094746;28;20058;-82
2022/10/29 05:16:43;;;;;;;0.00;0.00;;;11.90;99.90;;;;;;5094894;28;20043;-82
2022/10/29 05:19:09;;;;;;;0.00;0.00;;;11.90;99.90;;;;;;5094805;28;20063;-83
2022/10/29 05:21:34;;;;;;;0.10;0.10;;;11.80;99.90;;;;;;5078149;28;20052;-82
2022/10/29 05:24:00;;;;;;;0.00;0.00;;;11.90;99.90;;;;;;5094564;28;20040;-83
2022/10/29 05:26:26;;;;;;;0.00;0.00;;;12.00;99.90;;;;;;5078633;28;20404;-82
2022/10/29 05:28:51;;;;;;;0.10;0.00;;;12.00;99.90;;;;;;5077332;28;20507;-82
2022/10/29 05:31:18;;;;;;;0.00;0.00;;;12.10;99.90;;;;;;5094437;28;20399;-83
2022/10/29 05:33:43;;;;;;;0.00;0.00;;;12.10;99.90;;;;;;5077965;28;20055;-82
2022/10/29 05:36:09;;;;;;;0.08;0.00;;;12.10;99.90;;;;;;5094581;28;20040;-83
2022/10/29 05:38:35;;;;;;;0.00;0.00;;;12.10;99.90;;;;;;5094882;28;20138;-82
2022/10/29 05:41:01;;;;;;;0.00;0.00;;;12.10;99.90;;;;;;5094519;28;20379;-82
2022/10/29 05:43:26;;;;;;;0.00;0.00;;;12.20;99.90;;;;;;5076976;28;20052;-83
2022/10/29 05:45:52;;;;;;;0.10;0.00;;;12.10;99.90;;;;;;5094274;28;20043;-82
2022/10/29 05:48:18;;;;;;;0.00;0.00;;;12.10;99.90;;;;;;5077251;28;20082;-82
2022/10/29 05:50:43;;;;;;;0.00;0.00;;;12.20;99.90;;;;;;5077548;28;20484;-83
2022/10/29 05:53:12;;;;;;;0.10;0.10;;;12.10;99.90;;;;;;5094845;28;20476;-83
2022/10/29 05:55:38;;;;;;;0.00;0.00;;;12.10;99.90;;;;;;5077330;28;20430;-83
2022/10/29 05:58:08;;;;;;;0.00;0.00;;;12.10;99.90;;;;;;5094639;28;20384;-82
2022/10/29 06:00:37;;;;;;;0.03;0.00;;;12.10;99.90;;;;;;5093938;28;20083;-82
2022/10/29 06:03:03;;;;;;;0.63;0.45;;;12.10;99.90;;;;;;5076925;28;20160;-83
2022/10/29 06:05:29;;;;;;;0.00;0.00;;;12.10;99.90;;;;;;5094003;28;20056;-82
2022/10/29 06:07:58;;;;;;;4.07;0.98;;;12.10;99.90;;;;;;5093464;28;20464;-83
2022/10/29 06:10:28;;;;;;;0.10;0.10;;;12.10;99.90;;;;;;5077187;28;20052;-83
2022/10/29 06:12:54;;;;;;;0.00;0.00;;;12.10;99.90;;;;;;5076870;28;20044;-83
2022/10/29 06:15:20;;;;;;;0.00;0.00;;;12.20;99.90;;;;;;5094031;28;20044;-82
2022/10/29 06:17:47;;;;;;;0.00;0.00;;;12.10;99.90;;;;;;5077105;28;20053;-82
2022/10/29 06:20:15;;;;;;;0.00;0.00;;;12.20;99.90;;;;;;5076742;28;20055;-82
2022/10/29 06:22:40;;;;;;;0.00;0.00;;;12.10;99.90;;;;;;5076895;28;20051;-81
2022/10/29 06:25:06;;;;;;;3.40;0.10;;;12.00;99.90;;;;;;5093880;28;20488;-81
2022/10/29 06:27:32;;;;;;;0.00;0.00;;;12.10;99.90;;;;;;5076700;28;20054;-82
2022/10/29 06:29:57;;;;;;;0.10;0.10;;;12.10;99.90;;;;;;5093105;28;20476;-82
2022/10/29 06:32:23;;;;;;;0.00;0.00;;;12.00;99.90;;;;;;5093350;28;20050;-82
2022/10/29 06:34:49;;;;;;;0.00;0.00;;;11.90;99.90;;;;;;5076752;28;20143;-83
2022/10/29 06:37:14;;;;;;;0.00;0.00;;;12.00;99.90;;;;;;5093649;28;20096;-82
2022/10/29 06:39:40;;;;;;;0.10;0.10;;;11.90;99.90;;;;;;5092793;28;20460;-82
2022/10/29 06:42:06;;;;;;;0.00;0.00;;;12.00;99.90;;;;;;5075916;28;20101;-82
2022/10/29 06:44:31;;;;;;;0.00;0.00;;;12.00;99.90;;;;;;5076285;28;20098;-82
2022/10/29 06:46:57;;;;;;;0.00;0.00;;;12.00;99.90;;;;;;5093034;28;20044;-82
2022/10/29 06:49:23;;;;;;;0.00;0.00;;;12.00;99.90;;;;;;5092927;28;20440;-82
2022/10/29 06:51:48;;;;;;;0.00;0.00;;;12.00;99.90;;;;;;5093169;28;20372;-82
2022/10/29 06:54:14;;;;;;;0.05;0.05;;;12.00;99.90;;;;;;5092991;28;20040;-82
2022/10/29 06:56:39;;;;;;;0.00;0.00;;;12.00;99.90;;;;;;5093381;28;20040;-82
2022/10/29 06:59:05;;;;;;;0.00;0.00;;;12.10;99.90;;;;;;5092976;28;20048;-82
2022/10/29 07:01:32;;;;;;;0.00;0.00;;;12.20;99.90;;;;;;5093203;28;20479;-81
2022/10/29 07:03:58;;;;;;;0.00;0.00;;;12.10;99.90;;;;;;5076129;28;20048;-81
2022/10/29 07:06:24;;;;;;;0.08;0.08;;;12.20;99.90;;;;;;5076988;28;20060;-81
2022/10/29 07:08:50;;;;;;;0.00;0.00;;;12.20;99.90;;;;;;5092785;28;20123;-81
2022/10/29 07:11:15;;;;;;;0.00;0.00;;;12.30;99.90;;;;;;5076287;28;20055;-81
2022/10/29 07:13:41;;;;;;;0.20;0.00;;;12.30;99.90;;;;;;5076463;28;20529;-82
2022/10/29 07:16:07;;;;;;;0.00;0.00;;;12.30;99.90;;;;;;5092802;28;20407;-82
2022/10/29 07:18:33;;;;;;;0.00;0.00;;;12.40;99.90;;;;;;5092341;28;20063;-82
2022/10/29 07:21:01;;;;;;;0.00;0.00;;;12.40;99.90;;;;;;5097267;28;20059;-81
2022/10/29 07:23:27;;;;;;;0.20;0.20;;;12.40;99.90;;;;;;5097037;28;20112;-81
2022/10/29 07:25:53;;;;;;;0.00;0.00;;;12.50;99.90;;;;;;5097051;28;20546;-81
2022/10/29 07:28:21;;;;;;;0.00;0.00;;;12.50;99.90;;;;;;5079880;28;20048;-81
2022/10/29 07:30:48;;;;;;;0.10;0.10;;;12.50;99.90;;;;;;5097035;28;20040;-81
2022/10/29 07:33:14;;;;;;;0.10;0.10;;;12.50;99.90;;;;;;5097020;28;20048;-81
2022/10/29 07:35:41;;;;;;;0.13;0.13;;;12.50;99.90;;;;;;5097301;28;20132;-82
2022/10/29 07:38:08;;;;;;;0.85;0.38;;;12.50;99.90;;;;;;5080319;28;20044;-82
2022/10/29 07:40:34;;;;;;;0.00;0.00;;;12.50;99.90;;;;;;5080210;28;20052;-81
2022/10/29 07:42:59;;;;;;;0.00;0.00;;;12.60;99.90;;;;;;5079862;28;20489;-81
2022/10/29 07:45:25;;;;;;;0.00;0.00;;;12.70;99.90;;;;;;5079903;28;20059;-82
2022/10/29 07:48:08;;;;;;;0.75;0.65;;;12.70;99.90;;;;;;5096993;28;20135;-81
2022/10/29 07:50:34;;;;;;;0.00;0.00;;;12.80;99.90;;;;;;5097067;28;20048;-81
2022/10/29 07:53:01;;;;;;;0.00;0.00;;;12.80;99.90;;;;;;5096835;28;20193;-81
2022/10/29 07:55:27;;;;;;;0.00;0.00;;;12.90;99.90;;;;;;5080004;28;20048;-81
2022/10/29 07:57:57;;;;;;;0.30;0.30;;;13.00;99.90;;;;;;5079449;28;20475;-81
2022/10/29 08:00:24;;;;;;;0.00;0.00;;;13.00;99.90;;;;;;5080216;28;20052;-82
2022/10/29 08:02:52;;;;;;;0.00;0.00;;;13.20;99.90;;;;;;5096805;28;20040;-81
2022/10/29 08:05:18;;;;;;;0.10;0.10;;;13.30;99.90;;;;;;5096617;28;20096;-82
2022/10/29 08:07:43;;;;;;;0.00;0.00;;;13.40;99.90;;;;;;5096986;28;20372;-82
2022/10/29 08:10:09;;;;;;;0.00;0.00;;;13.50;99.90;;;;;;5096694;28;20044;-81
2022/10/29 08:12:35;;;;;;;0.88;0.35;;;13.60;99.90;;;;;;5079913;28;20048;-82
2022/10/29 08:15:00;;;;;;;0.17;0.10;;;13.60;99.90;;;;;;5096473;28;20044;-82
2022/10/29 08:17:28;;;;;;;0.00;0.00;;;13.70;99.90;;;;;;5096271;28;20396;-83
2022/10/29 08:19:54;;;;;;;0.00;0.00;;;13.70;99.90;;;;;;5096367;28;20044;-82
2022/10/29 08:22:19;;;;;;;0.00;0.00;;;13.80;99.90;;;;;;5096262;28;20135;-82
2022/10/29 08:24:45;;;;;;;0.00;0.00;;;13.90;99.90;;;;;;5079723;28;20114;-84
2022/10/29 08:27:11;;;;;;;0.17;0.10;;;13.90;99.90;;;;;;5096139;28;20391;-82
2022/10/29 08:29:36;;;;;;;1.55;0.65;;;13.90;99.90;;;;;;5096112;28;20047;-82
2022/10/29 08:32:02;;;;;;;0.00;0.00;;;13.90;99.90;;;;;;5096353;28;20043;-82
2022/10/29 08:34:27;;;;;;;0.00;0.00;;;13.90;99.90;;;;;;5095955;28;20044;-82
2022/10/29 08:36:53;;;;;;;0.00;0.00;;;14.00;99.90;;;;;;5096030;28;20040;-85
2022/10/29 08:39:19;;;;;;;0.00;0.00;;;14.00;99.90;;;;;;5079102;28;20048;-83
2022/10/29 08:41:47;;;;;;;0.00;0.00;;;14.10;99.90;;;;;;5095171;28;20051;-81
2022/10/29 08:44:27;;;;;;;0.00;0.00;;;14.30;99.90;;;;;;5078867;28;20052;-81
2022/10/29 08:47:12;;;;;;;0.00;0.00;;;14.40;99.90;;;;;;5079038;28;20046;-80
2022/10/29 08:49:56;;;;;;;0.20;0.03;;;14.40;99.90;;;;;;5078479;28;20472;-80
2022/10/29 08:52:27;;;;;;;0.00;0.00;;;14.50;99.90;;;;;;5095895;28;20110;-82
2022/10/29 08:55:05;;;;;;;0.00;0.00;;;14.60;99.90;;;;;;5078398;28;20514;-84
2022/10/29 08:57:36;;;;;;;0.00;0.00;;;14.80;99.90;;;;;;5078596;28;20047;-81
2022/10/29 09:00:05;;;;;;;0.00;0.00;;;14.90;99.90;;;;;;5078860;28;20052;-81
2022/10/29 09:02:30;;;;;;;0.00;0.00;;;15.00;99.90;;;;;;5095320;28;20050;-81
2022/10/29 09:04:57;;;;;;;0.80;0.20;;;15.30;99.90;;;;;;5078179;28;20055;-81
2022/10/29 09:07:40;;;;;;;0.00;0.00;;;15.70;99.90;;;;;;5095034;28;20047;-81
2022/10/29 09:10:24;;;;;;;0.47;0.15;;;15.80;99.90;;;;;;5078184;28;20139;-81
2022/10/29 09:13:11;;;;;;;0.10;0.10;;;15.70;99.90;;;;;;5094913;28;20098;-81
2022/10/29 09:15:48;;;;;;;3.83;1.27;;;15.70;99.90;;;;;;5078131;28;20046;-81
2022/10/29 09:18:32;;;;;;;1.55;0.30;;;15.60;99.90;;;;;;5078068;28;20488;-81
2022/10/29 09:21:06;;;;;;;0.08;0.08;;;15.60;99.90;;;;;;5095077;28;20400;-81
2022/10/29 09:23:45;;;;;;;;;;;15.70;99.90;;;;;;5078588;28;20056;-81
2022/10/29 09:26:30;;;;;;;0.00;0.00;;;16.10;99.90;;;;;;5078325;28;20291;-81
2022/10/29 09:29:17;;;;;;;0.10;0.10;;;16.50;99.90;;;;;;5078012;28;20472;-81
2022/10/29 09:31:48;;;;;;;5.03;0.55;;;16.90;99.90;;;;;;5077415;28;20511;-81
2022/10/29 09:34:24;;;;;;;0.00;0.00;;;17.10;99.90;;;;;;5095282;28;20093;-81
2022/10/29 09:36:50;;;;;;;0.00;0.00;;;17.00;99.90;;;;;;5077594;28;20044;-81
2022/10/29 09:39:32;;;;;;;0.20;0.10;;;17.00;99.90;;;;;;5094667;28;20047;-81
2022/10/29 09:42:00;;;;;;;0.30;0.22;;;17.00;99.90;;;;;;5076610;28;20055;-81
2022/10/29 09:44:38;;;;;;;0.28;0.28;;;17.10;99.90;;;;;;5077311;28;20052;-81
2022/10/29 09:47:34;;;;;;;0.15;0.15;;;17.40;99.90;;;;;;5077904;28;20048;-81
2022/10/29 09:50:15;;;;;;;1.10;0.50;;;17.80;99.90;;;;;;5076936;28;20056;-82
2022/10/29 09:52:44;;;;;;;0.00;0.00;;;18.10;99.90;;;;;;5077169;28;20044;-81
2022/10/29 09:55:38;;;;;;;0.00;0.00;;;18.00;99.90;;;;;;5077299;28;20048;-81
2022/10/29 09:58:05;;;;;;;0.20;0.20;;;17.90;99.90;;;;;;5094218;28;20108;-81
2022/10/29 10:00:31;;;;;;;0.20;0.20;;;17.80;99.90;;;;;;5077476;28;20097;-81
2022/10/29 10:03:03;;;;;;;0.20;0.20;;;17.70;99.90;;;;;;5077024;28;20048;-84
2022/10/29 10:05:31;;;;;;;0.10;0.10;;;17.60;99.90;;;;;;5094837;28;20047;-81
2022/10/29 10:08:12;;;;;;;0.20;0.10;;;17.50;99.90;;;;;;5093960;28;20044;-81
2022/10/29 10:10:54;;;;;;;0.00;0.00;;;17.50;99.90;;;;;;5077331;28;20055;-81
2022/10/29 10:13:23;;;;;;;0.00;0.00;;;17.50;99.90;;;;;;5077264;28;20058;-81
2022/10/29 10:15:52;;;;;;;0.15;0.10;;;17.40;99.90;;;;;;5093967;28;20597;-81
2022/10/29 10:18:21;;;;;;;1.55;0.22;;;17.50;99.90;;;;;;5077627;28;20087;-81
2022/10/29 10:21:21;;;;;;;0.15;0.00;;;17.40;99.90;;;;;;5093978;28;20047;-81
2022/10/29 10:23:51;;;;;;;1.10;0.70;;;17.50;99.90;;;;;;5055653;28;20063;-81
2022/10/29 10:26:35;;;;;;;0.10;0.10;;;17.50;99.90;;;;;;5039273;28;20151;-81
2022/10/29 10:29:16;;;;;;;3.10;1.60;;;17.70;99.90;;;;;;5055603;28;20169;-81
2022/10/29 10:31:44;;;;;;;0.30;0.30;;;18.00;99.90;;;;;;5055607;28;20040;-81
2022/10/29 10:34:24;;;;;;;0.25;0.25;;;18.10;99.90;;;;;;5055878;28;20053;-81
2022/10/29 10:36:51;;;;;;;0.35;0.35;;;18.10;99.90;;;;;;5039068;28;20511;-82
2022/10/29 10:39:47;;;;;;;0.55;0.50;;;18.10;99.90;;;;;;5039164;28;20044;-82
2022/10/29 10:42:16;;;;;;;0.50;0.30;;;18.10;99.90;;;;;;5055255;28;20126;-82
2022/10/29 10:44:51;;;;;;;1.30;0.28;;;18.00;99.90;;;;;;5055545;28;20052;-82
2022/10/29 10:47:23;;;;;;;0.32;0.20;;;18.00;99.90;;;;;;5039092;28;20101;-81
2022/10/29 10:49:49;;;;;;;0.10;0.10;;;18.10;99.90;;;;;;5055143;28;20534;-82
2022/10/29 10:52:18;;;;;;;0.30;0.30;;;18.40;99.90;;;;;;5055232;28;20049;-81
2022/10/29 10:54:56;;;;;;;0.73;0.20;;;18.50;99.90;;;;;;5047700;28;20139;-82
2022/10/29 10:57:25;;;;;;;0.10;0.10;;;18.60;99.90;;;;;;5055112;28;20048;-82
2022/10/29 11:00:17;;;;;;;0.98;0.28;;;18.50;99.90;;;;;;5055379;28;20121;-81
2022/10/29 11:03:07;;;;;;;0.00;0.00;;;18.50;99.90;;;;;;5056314;28;20055;-82
2022/10/29 11:05:50;;;;;;;0.30;0.20;;;18.40;99.90;;;;;;5072877;28;20037;-82
2022/10/29 11:08:42;;;;;;;0.17;0.17;;;18.40;99.90;;;;;;5056659;28;20400;-82
2022/10/29 11:11:23;;;;;;;0.08;0.08;;;18.40;99.90;;;;;;5035467;28;20096;-82
2022/10/29 11:13:50;;;;;;;4.38;0.80;;;18.30;99.90;;;;;;5052093;28;20048;-82
2022/10/29 11:16:22;;;;;;;0.43;0.15;;;18.30;99.90;;;;;;5037182;28;20057;-83
2022/10/29 11:18:52;;;;;;;0.10;0.10;;;18.30;99.90;;;;;;5034892;28;20092;-83
2022/10/29 11:21:26;;;;;;;0.77;0.05;;;18.30;99.90;;;;;;5018471;28;20072;-83
2022/10/29 11:23:55;;;;;;;0.47;0.32;;;18.30;99.90;;;;;;5018536;28;20059;-81
2022/10/29 11:26:46;;;;;;;0.30;0.30;;;18.30;99.90;;;;;;5018413;28;20083;-82
2022/10/29 11:29:34;;;;;;;1.25;0.20;;;18.40;99.90;;;;;;5017631;28;20061;-82
2022/10/29 11:32:22;;;;;;;0.10;0.10;;;18.40;99.90;;;;;;5034479;28;20060;-82
2022/10/29 11:35:16;;;;;;;0.15;0.10;;;18.30;99.90;;;;;;5018392;28;20069;-82
2022/10/29 11:37:55;;;;;;;0.10;0.10;;;18.30;99.90;;;;;;5051078;28;20053;-83
2022/10/29 11:40:43;;;;;;;0.10;0.10;;;18.30;99.90;;;;;;5051288;28;20049;-82
2022/10/29 11:43:12;;;;;;;0.00;0.00;;;18.30;99.90;;;;;;5034910;28;20492;-82
2022/10/29 11:45:43;;;;;;;0.10;0.00;;;18.30;99.90;;;;;;5018356;28;20053;-82
2022/10/29 11:48:52;;;;;;;0.00;0.00;;;18.30;99.90;;;;;;5053770;28;20577;-81
2022/10/29 11:51:39;;;;;;;0.00;0.00;;;18.40;99.90;;;;;;5055874;28;20044;-81
2022/10/29 11:54:21;;;;;;;0.32;0.32;;;18.40;99.90;;;;;;5072745;28;20044;-81
2022/10/29 11:56:53;;;;;;;0.20;0.20;;;18.60;99.90;;;;;;5055943;28;20139;-81
2022/10/29 11:59:28;;;;;;;0.25;0.25;;;18.60;99.90;;;;;;5055564;28;20092;-82
2022/10/29 12:02:15;;;;;;;0.20;0.20;;;18.70;99.90;;;;;;5072137;28;20142;-81
2022/10/29 12:04:55;;;;;;;1.75;0.55;;;18.80;99.90;;;;;;5056085;28;20041;-81
2022/10/29 12:07:33;;;;;;;0.10;0.10;;;18.80;99.90;;;;;;5076417;28;20045;-82
2022/10/29 12:10:40;;;;;;;0.80;0.45;;;18.90;99.90;;;;;;5076070;28;20048;-81
2022/10/29 12:13:32;;;;;;;0.00;0.00;;;18.90;99.90;;;;;;5058310;28;20060;-81
2022/10/29 12:16:12;;;;;;;0.08;0.08;;;19.00;99.90;;;;;;5058469;28;20080;-81
2022/10/29 12:18:41;;;;;;;0.10;0.00;;;19.00;99.90;;;;;;5058089;28;20505;-82
2022/10/29 12:21:16;;;;;;;2.35;0.57;;;19.30;99.90;;;;;;5058654;28;20157;-82
2022/10/29 12:23:45;;;;;;;0.08;0.08;;;19.60;99.90;;;;;;5058291;28;20092;-81
2022/10/29 12:26:34;;;;;;;0.20;0.20;;;19.80;99.90;;;;;;5058045;28;20056;-81
2022/10/29 12:29:22;;;;;;;1.20;0.17;;;20.00;99.90;;;;;;5056957;28;20056;-81
2022/10/29 12:31:47;;;;;;;7.22;1.65;;;19.90;99.90;;;;;;5058015;28;20045;-81
2022/10/29 12:34:27;;;;;;;2.15;1.17;;;19.80;99.90;;;;;;5057963;28;20040;-81
2022/10/29 12:37:06;;;;;;;0.00;0.00;;;19.60;99.90;;;;;;5057744;28;20450;-81
2022/10/29 12:39:36;;;;;;;0.25;0.10;;;19.50;99.90;;;;;;5058284;28;20059;-81
2022/10/29 12:42:13;;;;;;;1.75;0.88;;;19.40;99.90;;;;;;5057303;28;20052;-82
2022/10/29 12:44:42;;;;;;;0.08;0.08;;;19.30;99.90;;;;;;5058141;28;20448;-81
2022/10/29 12:47:17;;;;;;;0.30;0.30;;;19.30;99.90;;;;;;5057487;28;20041;-82
2022/10/29 12:50:04;;;;;;;0.20;0.20;;;19.20;99.90;;;;;;5066824;28;20381;-82
2022/10/29 12:53:10;;;;;;;0.10;0.10;;;19.20;99.90;;;;;;5058584;28;20048;-82
2022/10/29 12:55:36;;;;;;;0.00;0.00;;;19.30;99.90;;;;;;5041046;28;20049;-82
2022/10/29 12:58:38;;;;;;;5.60;1.10;;;19.40;99.90;;;;;;5056734;28;20056;-81
2022/10/29 13:01:04;;;;;;;0.30;0.30;;;19.50;99.90;;;;;;5056608;28;20060;-81
2022/10/29 13:03:58;;;;;;;1.27;0.40;;;19.60;99.90;;;;;;5056433;28;20053;-81
2022/10/29 13:07:03;;;;;;;0.10;0.10;;;19.60;99.90;;;;;;5057225;28;20044;-81
2022/10/29 13:09:36;;;;;;;0.30;0.10;;;19.70;99.90;;;;;;4980421;28;20156;-81